Latest Weather Observations for Tindal

IDD60801

Issued at 7:31 am CST Sunday 2 October 2016 (issued every 30 minutes, with the page automatically refreshed every 10 minutes)

About weather observations | Map of weather stations | Latest weather observations for NT | Other Formats
Station Details ID: 014932 Name: TINDAL RAAF Lat: -14.52 Lon: 132.38 Height: 133.6 m
Data from the previous 72 hours. | See also: Recent months at Tindal
Date/Time
CST
Temp
°C
App
Temp
°C
Dew
Point
°C
Rel
Hum
%
Delta-T
°C
Wind Press
QNH
hPa
Press
MSL
hPa
Rain since
9am
mm
Dir  Spd
km/h
Gust
km/h
Spd
kts
Gust
kts
02/07:30am 26.3 30.3 22.8 81 2.4 NNW 6 9 3 5 1012.7 1011.7 25.0
02/07:00am 25.8 29.8 22.7 83 2.1 N 6 7 3 4 1012.2 1011.2 25.0
02/06:30am 25.6 29.7 22.9 85 1.8 NNE 6 7 3 4 1011.9 1010.9 25.0
02/06:00am 25.8 29.8 22.7 83 2.1 N 6 7 3 4 1011.5 1010.5 25.0
02/05:30am 25.7 29.4 22.6 83 2.1 N 7 11 4 6 1011.2 1010.2 25.0
02/05:00am 25.5 28.8 22.6 84 2.0 NNE 9 13 5 7 1010.9 1009.9 25.0
02/04:30am 25.5 29.5 22.8 85 1.8 N 6 9 3 5 1010.6 1009.6 25.0
02/04:00am 25.2 28.4 23.1 88 1.4 NNE 11 15 6 8 1010.3 1009.3 25.0
02/03:30am 25.4 28.6 23.1 87 1.6 NNE 11 13 6 7 1010.4 1009.4 25.0
02/03:00am 25.5 29.7 23.2 87 1.6 N 6 9 3 5 1010.8 1009.8 25.0
02/02:30am 25.3 30.3 23.2 88 1.4 NNW 2 9 1 5 1011.1 1010.1 25.0
02/02:00am 25.4 29.0 23.1 87 1.6 N 9 11 5 6 1011.2 1010.2 25.0
02/01:30am 25.3 29.5 23.4 89 1.3 NNW 7 9 4 5 1011.6 1010.6 25.0
02/01:00am 25.2 29.2 23.1 88 1.4 NNW 7 9 4 5 1011.8 1010.8 25.0
02/12:30am 25.1 29.2 23.2 89 1.3 N 7 9 4 5 1011.9 1010.9 25.0
02/12:00am 25.0 30.4 23.2 90 1.2 CALM 0 0 0 0 1012.1 1011.1 25.0
 
Date/Time
CST
Temp
°C
App
Temp
°C
Dew
Point
°C
Rel
Hum
%
Delta-T
°C
Wind Press
QNH
hPa
Press
MSL
hPa
Rain since
9am
mm
Dir  Spd
km/h
Gust
km/h
Spd
kts
Gust
kts
01/11:30pm 24.9 28.8 23.0 89 1.3 NE 7 9 4 5 1012.4 1011.4 25.0
01/11:00pm 24.7 29.5 22.8 89 1.3 NE 2 9 1 5 1012.6 1011.6 25.0
01/10:30pm 24.6 28.1 22.8 90 1.2 NE 9 13 5 7 1012.6 1011.6 25.0
01/10:00pm 24.8 27.4 22.7 88 1.4 NNE 13 19 7 10 1012.5 1011.5 25.0
01/09:30pm 24.9 28.1 23.0 89 1.3 NE 11 15 6 8 1012.5 1011.5 25.0
01/09:00pm 24.7 27.8 22.9 90 1.2 ENE 11 15 6 8 1012.5 1011.5 25.0
01/08:30pm 24.6 27.8 23.0 91 1.1 NNE 11 17 6 9 1012.4 1011.4 25.0
01/08:13pm 24.4 28.3 23.0 92 0.9 ENE 7 9 4 5 1012.1 1011.1 25.0
01/08:00pm 24.2 28.0 22.8 92 0.9 E 7 15 4 8 1011.7 1010.7 24.8
01/07:30pm 24.7 23.6 22.9 90 1.2 NW 33 46 18 25 1011.3 1010.3 8.0
01/07:27pm 25.2 23.9 23.1 88 1.4 NW 35 46 19 25 1011.1 1010.1 4.4
01/07:20pm 27.0 28.4 22.8 78 2.9 WNW 20 46 11 25 1010.6 1009.6 2.6
01/07:00pm 29.3 31.0 21.0 61 5.6 NE 13 17 7 9 1010.0 1009.0 2.6
01/06:30pm 29.5 32.7 21.7 63 5.3 S 7 9 4 5 1008.9 1007.8 2.6
01/06:00pm 29.8 32.4 21.2 60 5.8 S 9 11 5 6 1008.5 1007.4 2.6
01/05:30pm 30.2 33.0 20.4 55 6.5 E 6 9 3 5 1008.4 1007.3 2.6
01/05:00pm 30.6 32.5 21.4 58 6.2 SE 13 19 7 10 1008.3 1007.2 2.6
01/04:30pm 31.1 33.8 21.3 56 6.6 E 9 13 5 7 1008.5 1007.4 2.6
01/04:00pm 31.1 32.6 21.3 56 6.6 SW 15 20 8 11 1007.8 1006.8 2.6
01/03:30pm 31.1 33.0 22.7 61 5.8 WSW 17 26 9 14 1007.6 1006.6 2.6
01/03:13pm 29.5 31.8 23.4 69 4.2 WSW 17 24 9 13 1008.2 1007.1 2.6
01/03:00pm 27.7 29.6 23.7 79 2.8 WSW 20 30 11 16 1008.5 1007.4 2.6
01/02:50pm 27.8 28.2 22.5 73 3.6 W 24 30 13 16 1008.5 1007.4 1.0
01/02:30pm 32.7 31.8 20.6 49 8.1 W 26 39 14 21 1008.6 1007.5 0.0
01/02:00pm 35.5 36.3 18.1 35 11.4 NNW 11 22 6 12 1008.5 1007.4 0.0
01/01:30pm 35.7 36.2 18.3 35 11.4 NW 13 28 7 15 1009.0 1007.9 0.0
01/01:00pm 35.3 36.4 18.8 37 10.9 NW 11 26 6 14 1009.5 1008.5 0.0
01/12:30pm 34.4 35.1 19.6 41 9.9 N 15 22 8 12 1010.4 1009.4 0.0
01/12:00pm 33.8 35.3 20.6 46 8.9 NW 13 22 7 12 1011.1 1010.1 0.0
01/11:30am 33.6 35.0 20.4 46 8.9 NNW 13 20 7 11 1011.7 1010.7 0.0
01/11:00am 33.1 33.7 20.3 47 8.6 NNW 17 22 9 12 1012.0 1011.0 0.0
01/10:30am 32.3 32.9 19.5 46 8.5 NW 15 20 8 11 1012.5 1011.5 0.0
01/10:00am 31.7 33.2 20.6 51 7.4 WNW 13 24 7 13 1012.7 1011.7 0.0
01/09:30am 30.3 32.4 21.7 60 5.8 WNW 13 20 7 11 1012.8 1011.8 0.0
01/09:00am 29.7 32.1 22.2 64 5.1 NW 13 19 7 10 1012.8 1012.0 0.0
01/08:30am 28.3 30.8 21.8 68 4.4 NNW 11 15 6 8 1012.7 1011.9 0.0
01/08:00am 27.6 30.3 22.1 72 3.7 NNW 11 17 6 9 1012.4 1011.6 0.0
01/07:30am 27.3 30.2 21.8 72 3.7 NNW 9 13 5 7 1011.8 1011.0 0.0
01/07:00am 27.1 29.9 21.6 72 3.7 NNW 9 11 5 6 1011.6 1010.8 0.0
01/06:30am 26.8 30.0 21.6 73 3.5 NNW 7 11 4 6 1011.4 1010.6 0.0
01/06:00am 26.8 30.0 21.6 73 3.5 NNW 7 9 4 5 1011.1 1010.2 0.0
01/05:30am 26.5 31.0 21.5 74 3.3 CALM 0 0 0 0 1010.8 1009.9 0.0
01/05:00am 26.6 30.9 21.1 72 3.7 CALM 0 0 0 0 1010.3 1009.4 0.0
01/04:30am 26.9 30.9 21.4 72 3.7 NW 2 6 1 3 1010.1 1009.2 0.0
01/04:00am 27.6 31.0 20.9 67 4.5 N 4 7 2 4 1009.7 1008.8 0.0
01/03:30am 27.6 30.4 20.9 67 4.5 NNW 7 7 4 4 1009.5 1008.6 0.0
01/03:00am 28.0 30.4 20.8 65 4.8 NW 9 11 5 6 1009.4 1008.5 0.0
01/02:30am 28.4 30.7 20.7 63 5.1 NE 9 11 5 6 1009.6 1008.7 0.0
01/02:00am 28.4 30.4 20.7 63 5.1 N 11 15 6 8 1009.3 1008.4 0.0
01/01:30am 28.4 30.7 20.7 63 5.1 N 9 15 5 8 1009.3 1008.4 0.0
01/01:00am 28.4 30.7 20.7 63 5.1 N 9 11 5 6 1009.5 1008.6 0.0
01/12:30am 28.4 30.2 20.4 62 5.3 N 11 15 6 8 1009.5 1008.6 0.0
01/12:00am 28.4 30.4 19.9 60 5.6 N 9 13 5 7 1009.8 1008.9 0.0
 
Date/Time
CST
Temp
°C
App
Temp
°C
Dew
Point
°C
Rel
Hum
%
Delta-T
°C
Wind Press
QNH
hPa
Press
MSL
hPa
Rain since
9am
mm
Dir  Spd
km/h
Gust
km/h
Spd
kts
Gust
kts
30/11:30pm 28.3 30.2 19.8 60 5.6 NNW 9 11 5 6 1009.7 1008.8 0.0
30/11:00pm 28.3 30.1 19.5 59 5.7 NW 9 13 5 7 1009.7 1008.8 0.0
30/10:30pm 28.7 30.1 19.6 58 6.0 WNW 11 15 6 8 1009.6 1008.7 0.0
30/10:00pm 29.7 30.3 19.4 54 6.7 NNW 15 20 8 11 1009.3 1008.4 0.0
30/09:30pm 30.5 31.0 19.2 51 7.4 NNW 15 22 8 12 1009.1 1008.2 0.0
30/09:00pm 31.6 32.4 18.2 44 8.7 NNE 11 19 6 10 1008.8 1007.9 0.0
30/08:30pm 31.7 32.6 18.3 45 8.7 NNE 11 17 6 9 1008.3 1007.4 0.0
30/08:00pm 32.3 31.5 18.1 42 9.2 NE 19 26 10 14 1007.7 1006.9 0.0
30/07:30pm 33.5 32.3 17.6 38 10.3 NE 20 35 11 19 1007.1 1006.3 0.0
30/07:00pm 33.4 34.7 17.5 38 10.3 SSE 7 11 4 6 1006.3 1005.5 0.0
30/06:30pm 34.7 35.4 17.0 35 11.4 SSE 9 13 5 7 1006.1 1005.3 0.0
30/06:00pm 36.4 37.1 15.5 29 13.3 NE 6 11 3 6 1005.7 1004.9 0.0
30/05:30pm 36.8 36.8 15.3 28 13.6 NE 9 13 5 7 1005.8 1005.0 0.0
30/05:00pm 37.0 37.9 16.5 29 13.2 NW 7 13 4 7 1005.6 1004.8 0.0
30/04:30pm 37.1 37.8 16.1 29 13.5 NNW 7 20 4 11 1005.5 1004.7 0.0
30/04:00pm 36.7 36.9 16.8 30 12.8 NNE 11 19 6 10 1005.7 1004.9 0.0
30/03:30pm 37.6 37.6 17.1 30 13.3 NW 13 17 7 9 1006.0 1005.2 0.0
30/03:00pm 37.4 37.5 16.4 29 13.5 N 11 24 6 13 1006.4 1005.6 0.0
30/02:30pm 36.5 37.0 16.6 30 12.8 NNE 9 22 5 12 1006.9 1006.1 0.0
30/02:00pm 36.3 36.2 17.0 32 12.5 NNE 13 20 7 11 1007.3 1006.5 0.0
30/01:30pm 35.6 35.4 16.8 32 12.1 N 13 28 7 15 1008.1 1007.2 0.0
30/01:00pm 35.4 35.2 16.7 33 12.0 NNE 13 24 7 13 1008.7 1007.8 0.0
30/12:30pm 34.9 35.2 18.0 36 11.0 NNW 13 24 7 13 1009.3 1008.4 0.0
30/12:00pm 34.5 35.4 19.3 40 10.1 NW 13 20 7 11 1010.0 1009.1 0.0
30/11:30am 33.5 34.4 19.2 43 9.4 WNW 13 20 7 11 1010.4 1009.5 0.0
30/11:00am 33.9 35.4 20.6 45 9.0 NNW 13 20 7 11 1010.7 1009.8 0.0
30/10:30am 32.2 32.6 19.8 48 8.2 NNW 17 26 9 14 1011.0 1010.1 0.0
30/10:00am 31.5 32.0 20.1 50 7.6 NNW 17 24 9 13 1011.2 1010.3 0.0
30/09:30am 31.0 31.9 20.9 55 6.8 NNW 17 24 9 13 1011.2 1010.3 0.0
30/09:00am 29.8 31.5 21.7 61 5.5 N 15 20 8 11 1011.3 1010.4 0.0
30/08:30am 28.9 30.3 21.9 66 4.7 N 17 26 9 14 1011.2 1010.3 0.0
30/08:00am 28.1 30.1 22.3 70 3.9 N 15 26 8 14 1011.0 1010.1 0.0
30/07:30am 27.4 29.9 22.4 74 3.4 N 13 20 7 11 1010.5 1009.6 0.0
30/07:00am 26.8 29.8 22.6 78 2.9 N 11 15 6 8 1010.1 1009.2 0.0
30/06:30am 26.5 28.7 22.6 79 2.6 NNE 15 20 8 11 1009.8 1008.9 0.0
30/06:00am 26.6 29.0 22.2 77 3.0 NNE 13 17 7 9 1009.4 1008.5 0.0
30/05:30am 26.9 29.1 21.9 74 3.4 NNE 13 17 7 9 1009.0 1008.1 0.0
30/05:00am 27.3 29.9 22.0 73 3.6 N 11 17 6 9 1008.7 1007.8 0.0
30/04:30am 27.5 31.1 22.4 73 3.5 N 7 9 4 5 1008.5 1007.6 0.0
30/04:00am 27.8 31.4 22.3 72 3.7 N 7 11 4 6 1008.5 1007.6 0.0
30/03:30am 27.9 31.1 22.4 72 3.7 NNE 9 11 5 6 1008.6 1007.7 0.0
30/03:00am 28.2 31.4 21.7 68 4.4 NNE 7 11 4 6 1008.7 1007.8 0.0
30/02:30am 28.3 31.1 21.6 67 4.5 NNW 9 13 5 7 1008.7 1007.8 0.0
30/02:00am 28.9 32.1 21.7 65 4.9 N 7 13 4 7 1008.7 1007.8 0.0
30/01:30am 28.9 31.4 21.7 65 4.9 NW 11 15 6 8 1008.8 1007.9 0.0
30/01:00am 29.5 31.4 21.4 61 5.4 WNW 13 17 7 9 1008.8 1007.9 0.0
30/12:30am 30.8 32.5 17.1 43 8.7 WNW 4 11 2 6 1009.1 1008.2 0.0
30/12:00am 30.7 32.1 17.7 45 8.3 NW 7 15 4 8 1009.2 1008.3 0.0
 
Date/Time
CST
Temp
°C
App
Temp
°C
Dew
Point
°C
Rel
Hum
%
Delta-T
°C
Wind Press
QNH
hPa
Press
MSL
hPa
Rain since
9am
mm
Dir  Spd
km/h
Gust
km/h
Spd
kts
Gust
kts
29/11:30pm 29.5 32.6 18.6 52 7.1 CALM 0 7 0 4 1009.2 1008.3 0.0
29/11:00pm 29.5 32.9 20.1 57 6.2 SE 2 7 1 4 1009.2 1008.3 0.0
29/10:30pm 28.8 31.2 20.0 59 5.8 SE 7 11 4 6 1009.0 1008.1 0.0
29/10:00pm 29.2 33.1 21.2 62 5.4 SE 2 6 1 3 1008.8 1007.9 0.0
29/09:30pm 29.2 32.0 20.4 59 5.8 SE 6 9 3 5 1008.5 1007.6 0.0
29/09:00pm 29.9 32.8 18.3 49 7.5 CALM 0 0 0 0 1008.1 1007.2 0.0
29/08:30pm 30.2 33.7 19.6 53 7.0 CALM 0 6 0 3 1007.6 1006.8 0.0
29/08:00pm 31.6 34.7 18.6 46 8.5 CALM 0 0 0 0 1007.0 1006.2 0.0
29/07:30pm 32.4 35.9 19.6 46 8.5 CALM 0 0 0 0 1006.5 1005.7 0.0
29/07:00pm 34.4 34.6 14.3 30 12.4 WSW 6 7 3 4 1006.2 1005.4 0.0
29/06:30pm 35.7 35.8 14.4 28 13.3 W 7 11 4 6 1006.0 1005.2 0.0
29/06:00pm 36.6 35.8 14.0 26 14.1 SE 11 13 6 7 1005.7 1004.9 0.0
29/05:30pm 37.3 36.2 12.0 22 15.3 SSE 9 15 5 8 1005.5 1004.7 0.0
29/05:00pm 38.1 37.8 13.3 22 15.3 SW 7 13 4 7 1005.5 1004.7 0.0
29/04:30pm 36.9 36.3 13.6 24 14.4 SW 9 13 5 7 1005.5 1004.7 0.0
29/04:00pm 37.7 36.8 13.7 24 14.9 S 11 17 6 9 1005.6 1004.8 0.0
29/03:30pm 38.0 37.2 13.9 24 15.0 SSE 11 22 6 12 1005.7 1004.9 0.0
29/03:00pm 38.0 36.8 13.9 24 15.0 SW 13 24 7 13 1006.0 1005.2 0.0
29/02:30pm 37.5 36.3 14.1 24 14.6 SE 13 20 7 11 1006.3 1005.5 0.0
29/02:00pm 37.3 36.3 14.6 26 14.2 SW 13 24 7 13 1006.8 1006.0 0.0
29/01:30pm 36.7 35.3 14.6 26 13.9 S 15 26 8 14 1007.3 1006.5 0.0
29/01:00pm 36.0 34.8 14.1 27 13.6 S 13 28 7 15 1008.2 1007.3 0.0
29/12:30pm 36.3 34.1 14.9 28 13.5 S 20 32 11 17 1008.7 1007.8 0.0
29/12:00pm 35.6 33.7 15.3 29 12.8 S 19 28 10 15 1009.3 1008.4 0.0
29/11:30am 35.6 33.5 15.3 29 12.8 S 20 32 11 17 1010.0 1009.1 0.0
29/11:00am 34.1 31.4 15.5 32 11.7 SSW 24 32 13 17 1010.4 1009.5 0.0
29/10:30am 33.5 33.0 16.8 36 10.7 S 15 26 8 14 1010.6 1009.7 0.0
29/10:00am 33.1 30.5 16.0 35 10.8 SW 24 33 13 18 1010.9 1010.0 0.0
29/09:30am 32.3 30.6 15.7 36 10.4 W 19 24 10 13 1011.0 1010.1 0.0
29/09:00am 30.5 31.2 18.9 50 7.6 W 13 19 7 10 1011.1 1010.2 0.4
29/08:30am 28.8 30.4 20.0 59 5.8 WNW 11 15 6 8 1011.1 1010.2 0.4
29/08:00am 26.9 29.5 21.2 71 3.8 NW 9 13 5 7 1011.0 1010.1 0.4

Other Formats:

Comma delimited format used in spreadsheet applications
http://www.bom.gov.au/fwo/IDD60801/IDD60801.94131.axf

JavaScript Object Notation format (JSON) in row-major order
http://www.bom.gov.au/fwo/IDD60801/IDD60801.94131.json